createdAt,value
2023-04-10T00:00:30.515Z,0
2023-04-10T00:01:31.229Z,0
2023-04-10T00:02:33.032Z,0
2023-04-10T00:03:34.084Z,0
2023-04-10T00:04:34.666Z,0
2023-04-10T00:05:34.654Z,0
2023-04-10T00:06:35.423Z,0
2023-04-10T00:07:35.989Z,0
2023-04-10T00:08:36.505Z,0
2023-04-10T00:09:37.624Z,0
2023-04-10T00:10:38.230Z,0
2023-04-10T00:11:38.527Z,0
2023-04-10T00:12:39.217Z,0
2023-04-10T00:13:39.684Z,0
2023-04-10T00:14:40.384Z,0
2023-04-10T00:15:40.480Z,0
2023-04-10T00:16:41.484Z,0
2023-04-10T00:17:42.255Z,0
2023-04-10T00:18:42.700Z,0
2023-04-10T00:19:43.412Z,0
2023-04-10T00:20:44.012Z,0
2023-04-10T00:21:44.701Z,0
2023-04-10T00:22:45.002Z,0
2023-04-10T00:23:45.748Z,0
2023-04-10T00:24:46.962Z,0
2023-04-10T00:25:47.655Z,0
2023-04-10T00:26:48.358Z,0
2023-04-10T00:27:48.631Z,0
2023-04-10T00:28:49.374Z,0
2023-04-10T00:29:50.085Z,0
2023-04-10T00:30:50.098Z,0
2023-04-10T00:31:51.751Z,0
2023-04-10T00:32:52.917Z,0
2023-04-10T00:33:53.177Z,0
2023-04-10T00:34:53.056Z,0
2023-04-10T00:35:54.170Z,0
2023-04-10T00:36:54.617Z,0
2023-04-10T00:37:55.311Z,0
2023-04-10T00:38:55.583Z,0
2023-04-10T00:39:56.540Z,0
2023-04-10T00:40:57.380Z,0
2023-04-10T00:41:57.553Z,0
2023-04-10T00:42:57.477Z,0
2023-04-10T00:43:58.742Z,0
2023-04-10T00:44:58.089Z,0
2023-04-10T00:46:00.859Z,0
2023-04-10T00:46:59.443Z,0
2023-04-10T00:48:00.329Z,0
2023-04-10T00:49:00.708Z,0
2023-04-10T00:50:01.453Z,0
2023-04-10T00:51:02.059Z,0
2023-04-10T00:52:04.306Z,0
2023-04-10T00:53:04.039Z,0
2023-04-10T00:54:04.912Z,0
2023-04-10T00:55:05.845Z,0
2023-04-10T00:56:06.373Z,0
2023-04-10T00:57:06.996Z,0
2023-04-10T00:58:07.947Z,0
2023-04-10T00:59:12.288Z,0
2023-04-10T01:00:08.399Z,0
2023-04-10T01:01:09.104Z,0
2023-04-10T01:02:10.697Z,0
2023-04-10T01:03:10.987Z,0
2023-04-10T01:04:11.979Z,0
2023-04-10T01:05:11.057Z,0
2023-04-10T01:06:11.278Z,0
2023-04-10T01:07:11.752Z,0
2023-04-10T01:08:11.887Z,0
2023-04-10T01:09:11.985Z,0
2023-04-10T01:10:12.289Z,0
2023-04-10T01:11:12.833Z,0
2023-04-10T01:12:13.374Z,0
2023-04-10T01:13:14.067Z,0
2023-04-10T01:14:14.571Z,0
2023-04-10T01:15:15.683Z,0
2023-04-10T01:16:15.384Z,0
2023-04-10T01:17:16.545Z,0
2023-04-10T01:18:16.459Z,0
2023-04-10T01:19:17.023Z,0
2023-04-10T01:20:17.729Z,0
2023-04-10T01:21:18.152Z,0
2023-04-10T01:22:19.047Z,0
2023-04-10T01:23:19.602Z,0
2023-04-10T01:24:20.316Z,0
2023-04-10T01:25:21.021Z,0
2023-04-10T01:26:21.333Z,0
2023-04-10T01:27:22.031Z,0
2023-04-10T01:28:22.109Z,0
2023-04-10T01:29:23.061Z,0
2023-04-10T01:30:23.775Z,0
2023-04-10T01:31:24.785Z,0
2023-04-10T01:32:25.407Z,0
2023-04-10T01:33:25.746Z,0
2023-04-10T01:34:26.701Z,0
2023-04-10T01:35:27.432Z,0
2023-04-10T01:36:28.177Z,0
2023-04-10T01:37:28.672Z,0
2023-04-10T01:38:28.962Z,0
2023-04-10T01:39:30.049Z,0
2023-04-10T01:40:30.987Z,0
2023-04-10T01:41:31.175Z,0
2023-04-10T01:42:32.311Z,0
2023-04-10T01:43:32.916Z,0
2023-04-10T01:44:33.419Z,0
2023-04-10T01:45:34.337Z,0
2023-04-10T01:46:35.408Z,0
2023-04-10T01:47:35.382Z,0
2023-04-10T01:48:36.168Z,0
2023-04-10T01:49:36.925Z,0
2023-04-10T01:50:37.826Z,0
2023-04-10T01:51:38.394Z,0
2023-04-10T01:52:38.701Z,0
2023-04-10T01:53:39.008Z,0
2023-04-10T01:54:39.608Z,0
2023-04-10T01:55:40.327Z,0
2023-04-10T01:56:41.254Z,0
2023-04-10T01:57:42.181Z,0
2023-04-10T01:58:42.671Z,0
2023-04-10T01:59:43.161Z,0
2023-04-10T02:00:43.529Z,0
2023-04-10T02:01:45.012Z,0
2023-04-10T02:02:45.487Z,0
2023-04-10T02:03:46.544Z,0
2023-04-10T02:04:46.792Z,0
2023-04-10T02:05:46.515Z,0
2023-04-10T02:06:47.246Z,0
2023-04-10T02:07:47.741Z,0
2023-04-10T02:08:48.617Z,0
2023-04-10T02:09:49.118Z,0
2023-04-10T02:10:49.813Z,0
2023-04-10T02:11:49.906Z,0
2023-04-10T02:12:50.195Z,0
2023-04-10T02:13:50.529Z,0
2023-04-10T02:15:04.320Z,0
2023-04-10T02:16:52.649Z,0
2023-04-10T02:17:53.080Z,0
2023-04-10T02:18:53.749Z,0
2023-04-10T02:19:54.322Z,0
2023-04-10T02:20:54.856Z,0
2023-04-10T02:21:55.433Z,0
2023-04-10T02:22:55.934Z,0
2023-04-10T02:23:56.954Z,0
2023-04-10T02:24:56.806Z,0
2023-04-10T02:25:57.589Z,0
2023-04-10T02:26:58.363Z,0
2023-04-10T02:27:59.072Z,0
2023-04-10T02:28:59.750Z,0
2023-04-10T02:30:00.274Z,0
2023-04-10T02:31:01.094Z,0
2023-04-10T02:32:01.159Z,0
2023-04-10T02:33:01.858Z,0
2023-04-10T02:34:02.564Z,0
2023-04-10T02:35:03.330Z,0
2023-04-10T02:36:04.379Z,0
2023-04-10T02:37:03.958Z,0
2023-04-10T02:38:04.233Z,0
2023-04-10T02:39:04.995Z,0
2023-04-10T02:40:05.529Z,0
2023-04-10T02:41:06.247Z,0
2023-04-10T02:42:06.431Z,0
2023-04-10T02:43:07.134Z,0
2023-04-10T02:44:07.688Z,0
2023-04-10T02:45:08.400Z,0
2023-04-10T02:46:08.702Z,0
2023-04-10T02:47:09.613Z,0
2023-04-10T02:48:10.751Z,0
2023-04-10T02:49:11.064Z,0
2023-04-10T02:50:12.859Z,0
2023-04-10T02:51:13.363Z,0
2023-04-10T02:52:13.790Z,0
2023-04-10T02:53:14.510Z,0
2023-04-10T02:54:15.239Z,0
2023-04-10T02:55:15.700Z,0
2023-04-10T02:56:16.382Z,0
2023-04-10T02:57:17.295Z,0
2023-04-10T02:58:20.778Z,0
2023-04-10T02:59:18.557Z,0
2023-04-10T03:00:19.065Z,0
2023-04-10T03:01:19.990Z,0
2023-04-10T03:02:20.425Z,0
2023-04-10T03:03:22.383Z,0
2023-04-10T03:04:22.743Z,0
2023-04-10T03:05:22.612Z,0
2023-04-10T03:06:23.538Z,0
2023-04-10T03:07:24.250Z,0
2023-04-10T03:08:24.422Z,0
2023-04-10T03:09:24.746Z,0
2023-04-10T03:10:25.632Z,0
2023-04-10T03:11:25.364Z,0
2023-04-10T03:12:26.727Z,0
2023-04-10T03:13:27.413Z,0
2023-04-10T03:14:27.719Z,0
2023-04-10T03:15:28.222Z,0
2023-04-10T03:16:28.893Z,0
2023-04-10T03:17:28.934Z,0
2023-04-10T03:18:29.732Z,0
2023-04-10T03:19:30.286Z,0
2023-04-10T03:20:30.866Z,0
2023-04-10T03:21:31.338Z,0
2023-04-10T03:22:31.735Z,0
2023-04-10T03:23:32.431Z,0
2023-04-10T03:24:33.129Z,0
2023-04-10T03:25:33.635Z,0
2023-04-10T03:26:34.557Z,0
2023-04-10T03:27:35.123Z,0
2023-04-10T03:28:35.498Z,0
2023-04-10T03:29:36.197Z,0
2023-04-10T03:30:37.242Z,0
2023-04-10T03:31:38.471Z,0
2023-04-10T03:33:38.693Z,0
2023-04-10T03:34:39.225Z,0
2023-04-10T03:35:40.110Z,0
2023-04-10T03:36:40.250Z,0
2023-04-10T03:37:40.164Z,0
2023-04-10T03:38:40.645Z,0
2023-04-10T03:39:41.545Z,0
2023-04-10T03:40:42.045Z,0
2023-04-10T03:41:42.596Z,0
2023-04-10T03:42:43.258Z,0
2023-04-10T03:43:43.793Z,0
2023-04-10T03:44:44.266Z,0
2023-04-10T03:45:44.983Z,0
2023-04-10T03:46:45.875Z,0
2023-04-10T03:47:46.685Z,0
2023-04-10T03:48:47.741Z,0
2023-04-10T03:49:48.253Z,0
2023-04-10T03:50:48.584Z,0
2023-04-10T03:51:49.272Z,0
2023-04-10T03:52:50.238Z,0
2023-04-10T03:53:50.741Z,0
2023-04-10T03:54:51.720Z,0
2023-04-10T03:55:52.461Z,0
2023-04-10T03:56:53.204Z,0
2023-04-10T03:57:54.341Z,0
2023-04-10T03:58:54.814Z,0
2023-04-10T03:59:54.892Z,0
2023-04-10T04:00:55.799Z,0
2023-04-10T04:01:57.046Z,0
2023-04-10T04:02:58.434Z,0
2023-04-10T04:03:59.884Z,0
2023-04-10T04:04:58.070Z,0
2023-04-10T04:05:59.073Z,0
2023-04-10T04:06:59.170Z,0
2023-04-10T04:07:59.295Z,0
2023-04-10T04:08:59.995Z,0
2023-04-10T04:10:02.375Z,0
2023-04-10T04:11:00.867Z,0
2023-04-10T04:12:01.783Z,0
2023-04-10T04:13:01.838Z,0
2023-04-10T04:14:02.060Z,0
2023-04-10T04:15:02.780Z,4
2023-04-10T04:16:02.956Z,0
2023-04-10T04:17:03.841Z,0
2023-04-10T04:18:04.796Z,4
2023-04-10T04:19:05.540Z,0
2023-04-10T04:20:06.053Z,4
2023-04-10T04:21:06.883Z,4
2023-04-10T04:22:07.651Z,8
2023-04-10T04:23:08.165Z,8
2023-04-10T04:24:08.695Z,8
2023-04-10T04:25:09.049Z,8
2023-04-10T04:26:09.735Z,12
2023-04-10T04:27:10.069Z,8
2023-04-10T04:28:10.555Z,12
2023-04-10T04:29:10.857Z,16
2023-04-10T04:30:11.550Z,16
2023-04-10T04:31:12.276Z,20
2023-04-10T04:32:13.000Z,20
2023-04-10T04:33:13.644Z,24
2023-04-10T04:34:14.399Z,28
2023-04-10T04:35:14.692Z,32
2023-04-10T04:36:15.565Z,36
2023-04-10T04:37:16.302Z,40
2023-04-10T04:38:16.798Z,40
2023-04-10T04:39:17.329Z,48
2023-04-10T04:40:17.834Z,52
2023-04-10T04:41:20.042Z,60
2023-04-10T04:42:19.414Z,64
2023-04-10T04:43:19.676Z,68
2023-04-10T04:44:19.791Z,72
2023-04-10T04:45:20.289Z,80
2023-04-10T04:46:21.098Z,88
2023-04-10T04:47:22.046Z,92
2023-04-10T04:48:22.604Z,100
2023-04-10T04:49:23.554Z,108
2023-04-10T04:50:24.251Z,116
2023-04-10T04:51:25.017Z,124
2023-04-10T04:52:25.737Z,128
2023-04-10T04:53:26.160Z,136
2023-04-10T04:54:27.277Z,144
2023-04-10T04:55:26.982Z,156
2023-04-10T04:56:27.719Z,160
2023-04-10T04:57:28.625Z,168
2023-04-10T04:58:28.900Z,176
2023-04-10T04:59:29.218Z,184
2023-04-10T05:00:29.718Z,188
2023-04-10T05:01:30.169Z,196
2023-04-10T05:02:31.958Z,208
2023-04-10T05:03:32.107Z,216
2023-04-10T05:04:32.412Z,220
2023-04-10T05:05:31.681Z,228
2023-04-10T05:06:32.447Z,236
2023-04-10T05:07:32.990Z,248
2023-04-10T05:08:33.937Z,252
2023-04-10T05:09:34.446Z,264
2023-04-10T05:10:34.952Z,268
2023-04-10T05:11:35.662Z,280
2023-04-10T05:12:35.849Z,284
2023-04-10T05:13:36.062Z,292
2023-04-10T05:14:36.346Z,300
2023-04-10T05:15:37.655Z,312
2023-04-10T05:16:37.251Z,316
2023-04-10T05:17:38.138Z,324
2023-04-10T05:18:38.493Z,328
2023-04-10T05:19:39.294Z,336
2023-04-10T05:20:39.820Z,344
2023-04-10T05:21:40.190Z,352
2023-04-10T05:22:40.714Z,364
2023-04-10T05:23:41.316Z,368
2023-04-10T05:24:42.248Z,380
2023-04-10T05:25:42.746Z,384
2023-04-10T05:26:43.243Z,396
2023-04-10T05:27:44.174Z,408
2023-04-10T05:28:44.259Z,420
2023-04-10T05:29:44.930Z,436
2023-04-10T05:30:45.720Z,440
2023-04-10T05:31:46.730Z,452
2023-04-10T05:32:46.719Z,464
2023-04-10T05:33:47.448Z,472
2023-04-10T05:34:48.150Z,488
2023-04-10T05:35:49.089Z,500
2023-04-10T05:36:49.689Z,512
2023-04-10T05:37:50.541Z,524
2023-04-10T05:38:50.722Z,536
2023-04-10T05:39:50.686Z,544
2023-04-10T05:40:50.974Z,560
2023-04-10T05:41:52.253Z,572
2023-04-10T05:42:52.795Z,580
2023-04-10T05:43:53.228Z,592
2023-04-10T05:44:53.902Z,600
2023-04-10T05:45:54.801Z,612
2023-04-10T05:46:55.820Z,624
2023-04-10T05:47:56.948Z,632
2023-04-10T05:48:56.809Z,644
2023-04-10T05:49:57.447Z,652
2023-04-10T05:50:57.579Z,664
2023-04-10T05:51:58.306Z,672
2023-04-10T05:52:58.006Z,684
2023-04-10T05:53:58.425Z,692
2023-04-10T05:54:58.925Z,708
2023-04-10T05:55:59.610Z,716
2023-04-10T05:57:00.162Z,724
2023-04-10T05:58:00.710Z,740
2023-04-10T05:59:01.898Z,748
2023-04-10T06:00:02.595Z,760
2023-04-10T06:01:03.290Z,768
2023-04-10T06:02:03.953Z,780
2023-04-10T06:03:05.102Z,792
2023-04-10T06:04:06.288Z,808
2023-04-10T06:05:05.860Z,816
2023-04-10T06:06:05.584Z,832
2023-04-10T06:07:06.154Z,840
2023-04-10T06:08:09.318Z,852
2023-04-10T06:09:07.114Z,860
2023-04-10T06:10:07.627Z,872
2023-04-10T06:11:08.354Z,884
2023-04-10T06:12:09.081Z,892
2023-04-10T06:13:10.630Z,908
2023-04-10T06:14:09.339Z,920
2023-04-10T06:15:10.022Z,932
2023-04-10T06:16:11.208Z,948
2023-04-10T06:17:11.410Z,956
2023-04-10T06:18:11.248Z,972
2023-04-10T06:19:12.373Z,984
2023-04-10T06:20:12.485Z,996
2023-04-10T06:21:12.835Z,1012
2023-04-10T06:22:13.641Z,1028
2023-04-10T06:23:14.201Z,1040
2023-04-10T06:24:18.315Z,1052
2023-04-10T06:25:16.234Z,1068
2023-04-10T06:26:17.140Z,1088
2023-04-10T06:27:17.832Z,1272
2023-04-10T06:28:18.542Z,2324
2023-04-10T06:29:18.637Z,4116
2023-04-10T06:30:19.740Z,5996
2023-04-10T06:31:20.250Z,7480
2023-04-10T06:32:20.913Z,8296
2023-04-10T06:33:22.254Z,8548
2023-04-10T06:34:21.889Z,8816
2023-04-10T06:35:22.421Z,9240
2023-04-10T06:36:23.638Z,9672
2023-04-10T06:37:24.183Z,9720
2023-04-10T06:38:24.915Z,9712
2023-04-10T06:39:25.854Z,9680
2023-04-10T06:40:26.423Z,9760
2023-04-10T06:41:27.315Z,9876
2023-04-10T06:42:28.228Z,9760
2023-04-10T06:43:28.760Z,9628
2023-04-10T06:44:29.150Z,9452
2023-04-10T06:45:30.209Z,9108
2023-04-10T06:46:30.372Z,7944
2023-04-10T06:47:30.960Z,7744
2023-04-10T06:48:31.327Z,8432
2023-04-10T06:49:31.842Z,8368
2023-04-10T06:50:33.481Z,9064
2023-04-10T06:51:33.656Z,9868
2023-04-10T06:52:34.205Z,9884
2023-04-10T06:53:35.119Z,9976
2023-04-10T06:54:35.158Z,10788
2023-04-10T06:55:36.090Z,9676
2023-04-10T06:56:36.592Z,8424
2023-04-10T06:57:37.104Z,8884
2023-04-10T06:58:38.039Z,8224
2023-04-10T06:59:38.561Z,8324
2023-04-10T07:00:39.312Z,8768
2023-04-10T07:01:40.271Z,10012
2023-04-10T07:02:40.533Z,11112
2023-04-10T07:03:41.454Z,12052
2023-04-10T07:04:42.336Z,11876
2023-04-10T07:05:47.348Z,11804
2023-04-10T07:06:43.861Z,11720
2023-04-10T07:07:44.702Z,12020
2023-04-10T07:08:45.083Z,11716
2023-04-10T07:09:45.783Z,11448
2023-04-10T07:10:46.515Z,11228
2023-04-10T07:11:47.048Z,11144
2023-04-10T07:12:47.547Z,10776
2023-04-10T07:13:48.331Z,10788
2023-04-10T07:14:48.826Z,10404
2023-04-10T07:15:50.658Z,9144
2023-04-10T07:16:51.887Z,8876
2023-04-10T07:17:51.930Z,8600
2023-04-10T07:18:53.518Z,9400
2023-04-10T07:19:53.370Z,10128
2023-04-10T07:20:54.169Z,10244
2023-04-10T07:21:54.712Z,10076
2023-04-10T07:22:55.287Z,10160
2023-04-10T07:23:55.631Z,10892
2023-04-10T07:24:56.478Z,10828
2023-04-10T07:25:57.440Z,10500
2023-04-10T07:26:57.953Z,9744
2023-04-10T07:27:58.686Z,9260
2023-04-10T07:29:00.043Z,9020
2023-04-10T07:29:59.734Z,8660
2023-04-10T07:31:00.237Z,8744
2023-04-10T07:32:01.092Z,8216
2023-04-10T07:33:02.284Z,7596
2023-04-10T07:34:02.208Z,7316
2023-04-10T07:35:03.711Z,7676
2023-04-10T07:36:04.562Z,7720
2023-04-10T07:37:05.565Z,6744
2023-04-10T07:38:06.335Z,6960
2023-04-10T07:40:08.396Z,8652
2023-04-10T07:41:09.349Z,9792
2023-04-10T07:42:09.636Z,10580
2023-04-10T07:43:10.140Z,10824
2023-04-10T07:44:10.901Z,11108
2023-04-10T07:45:11.751Z,11388
2023-04-10T07:46:12.921Z,11016
2023-04-10T07:47:12.970Z,10628
2023-04-10T07:48:13.975Z,10592
2023-04-10T07:49:14.604Z,10352
2023-04-10T07:50:13.918Z,9888
2023-04-10T07:51:14.687Z,9364
2023-04-10T07:52:15.232Z,9180
2023-04-10T07:53:16.041Z,9204
2023-04-10T07:54:16.409Z,9300
2023-04-10T07:55:17.491Z,9344
2023-04-10T07:56:17.996Z,8932
2023-04-10T07:57:18.921Z,8600
2023-04-10T07:58:19.052Z,8996
2023-04-10T07:59:19.582Z,9924
2023-04-10T08:00:20.086Z,10040
2023-04-10T08:01:20.613Z,10028
2023-04-10T08:02:22.014Z,9900
2023-04-10T08:03:22.916Z,9736
2023-04-10T08:04:23.928Z,9024
2023-04-10T08:06:24.631Z,9060
2023-04-10T08:07:25.376Z,9484
2023-04-10T08:08:26.157Z,9244
2023-04-10T08:09:27.086Z,9540
2023-04-10T08:10:28.055Z,9644
2023-04-10T08:11:28.591Z,10128
2023-04-10T08:12:28.726Z,10552
2023-04-10T08:13:28.832Z,10596
2023-04-10T08:14:29.615Z,9156
2023-04-10T08:15:29.962Z,9788
2023-04-10T08:16:30.827Z,9452
2023-04-10T08:17:30.921Z,9796
2023-04-10T08:18:31.461Z,10384
2023-04-10T08:19:31.980Z,10784
2023-04-10T08:20:32.992Z,10540
2023-04-10T08:21:34.132Z,10176
2023-04-10T08:22:34.659Z,10372
2023-04-10T08:23:35.836Z,10636
2023-04-10T08:24:35.752Z,10276
2023-04-10T08:25:36.622Z,10156
2023-04-10T08:26:37.345Z,10024
2023-04-10T08:27:37.859Z,9792
2023-04-10T08:28:38.369Z,9904
2023-04-10T08:29:38.701Z,9028
2023-04-10T08:30:39.545Z,8228
2023-04-10T08:31:40.467Z,9068
2023-04-10T08:32:41.339Z,9840
2023-04-10T08:33:41.098Z,10644
2023-04-10T08:34:41.833Z,10948
2023-04-10T08:35:42.265Z,10632
2023-04-10T08:36:42.915Z,10924
2023-04-10T08:37:49.588Z,10864
2023-04-10T08:38:44.939Z,10344
2023-04-10T08:39:45.449Z,8740
2023-04-10T08:40:46.182Z,6536
2023-04-10T08:41:46.987Z,6804
2023-04-10T08:42:47.759Z,8604
2023-04-10T08:43:48.279Z,9316
2023-04-10T08:44:48.611Z,9632
2023-04-10T08:45:49.156Z,9612
2023-04-10T08:46:49.787Z,9556
2023-04-10T08:47:50.652Z,9388
2023-04-10T08:48:50.493Z,7812
2023-04-10T08:49:50.797Z,6488
2023-04-10T08:50:51.801Z,6612
2023-04-10T08:51:54.592Z,6912
2023-04-10T08:52:52.118Z,6620
2023-04-10T08:53:53.051Z,6588
2023-04-10T08:54:52.858Z,8340
2023-04-10T08:55:53.553Z,9244
2023-04-10T08:56:54.332Z,8436
2023-04-10T08:58:07.679Z,7424
2023-04-10T08:59:56.087Z,9660
2023-04-10T09:00:56.850Z,9836
2023-04-10T09:01:58.066Z,8976
2023-04-10T09:02:58.903Z,8252
2023-04-10T09:03:59.976Z,9384
2023-04-10T09:04:59.324Z,10880
2023-04-10T09:06:00.120Z,11712
2023-04-10T09:07:00.461Z,11464
2023-04-10T09:08:01.234Z,10604
2023-04-10T09:09:02.854Z,10468
2023-04-10T09:10:02.873Z,11344
2023-04-10T09:11:06.840Z,11548
2023-04-10T09:12:04.462Z,12524
2023-04-10T09:13:05.258Z,12180
2023-04-10T09:14:06.316Z,11156
2023-04-10T09:15:07.255Z,11088
2023-04-10T09:16:07.982Z,12320
2023-04-10T09:17:08.717Z,13168
2023-04-10T09:18:09.638Z,12920
2023-04-10T09:19:13.025Z,13244
2023-04-10T09:20:09.795Z,13716
2023-04-10T09:21:10.354Z,13880
2023-04-10T09:22:11.186Z,13844
2023-04-10T09:23:11.694Z,14372
2023-04-10T09:24:12.300Z,14000
2023-04-10T09:25:12.746Z,14824
2023-04-10T09:26:13.509Z,15488
2023-04-10T09:27:14.466Z,15424
2023-04-10T09:28:16.110Z,15616
2023-04-10T09:29:15.820Z,15392
2023-04-10T09:30:48.916Z,15648
2023-04-10T09:31:17.405Z,15648
2023-04-10T09:32:18.694Z,15152
2023-04-10T09:33:18.255Z,15808
2023-04-10T09:34:19.983Z,15456
2023-04-10T09:35:19.697Z,15032
2023-04-10T09:36:20.666Z,15036
2023-04-10T09:37:21.455Z,15052
2023-04-10T09:38:21.963Z,15052
2023-04-10T09:39:22.763Z,15072
2023-04-10T09:40:23.325Z,15424
2023-04-10T09:41:23.856Z,15328
2023-04-10T09:42:24.500Z,14728
2023-04-10T09:43:25.228Z,14896
2023-04-10T09:44:25.737Z,15020
2023-04-10T09:45:26.768Z,15124
2023-04-10T09:46:27.675Z,15072
2023-04-10T09:47:28.737Z,14940
2023-04-10T09:48:29.365Z,14908
2023-04-10T09:49:30.510Z,14936
2023-04-10T09:50:33.104Z,14884
2023-04-10T09:51:31.642Z,14048
2023-04-10T09:52:32.463Z,14140
2023-04-10T09:53:32.983Z,14708
2023-04-10T09:54:33.975Z,14836
2023-04-10T09:56:34.926Z,14784
2023-04-10T09:57:35.686Z,14764
2023-04-10T09:58:36.400Z,14848
2023-04-10T09:59:36.878Z,14732
2023-04-10T10:01:38.786Z,13024
2023-04-10T10:02:39.532Z,13192
2023-04-10T10:03:40.223Z,12860
2023-04-10T10:04:40.537Z,13600
2023-04-10T10:05:41.435Z,13524
2023-04-10T10:06:41.838Z,13840
2023-04-10T10:07:42.458Z,13304
2023-04-10T10:08:43.176Z,13128
2023-04-10T10:09:44.229Z,13612
2023-04-10T10:10:45.160Z,13732
2023-04-10T10:11:45.922Z,13860
2023-04-10T10:12:46.892Z,13612
2023-04-10T10:14:01.585Z,13480
2023-04-10T10:14:48.795Z,12152
2023-04-10T10:15:51.860Z,13580
2023-04-10T10:16:49.335Z,13096
2023-04-10T10:17:50.018Z,13424
2023-04-10T10:18:50.916Z,13652
2023-04-10T10:19:51.686Z,13620
2023-04-10T10:20:52.408Z,13832
2023-04-10T10:21:53.107Z,13968
2023-04-10T10:22:53.827Z,13592
2023-04-10T10:23:54.642Z,13708
2023-04-10T10:24:55.280Z,13860
2023-04-10T10:25:56.075Z,13924
2023-04-10T10:26:56.587Z,13640
2023-04-10T10:27:57.329Z,13768
2023-04-10T10:28:58.258Z,13748
2023-04-10T10:29:57.848Z,13828
2023-04-10T10:30:58.569Z,13784
2023-04-10T10:31:59.972Z,13836
2023-04-10T10:33:00.124Z,13704
2023-04-10T10:34:00.312Z,13664
2023-04-10T10:35:01.438Z,13628
2023-04-10T10:36:02.050Z,13668
2023-04-10T10:37:02.847Z,13620
2023-04-10T10:38:03.372Z,13516
2023-04-10T10:39:05.234Z,13708
2023-04-10T10:40:04.544Z,13696
2023-04-10T10:41:05.461Z,13796
2023-04-10T10:42:05.985Z,14008
2023-04-10T10:43:06.842Z,13592
2023-04-10T10:44:07.781Z,11904
2023-04-10T10:45:10.723Z,14152
2023-04-10T10:46:09.336Z,13996
2023-04-10T10:47:10.440Z,14064
2023-04-10T10:48:11.298Z,13912
2023-04-10T10:49:12.044Z,11568
2023-04-10T10:50:12.845Z,12248
2023-04-10T10:51:13.280Z,13604
2023-04-10T10:52:13.614Z,13528
2023-04-10T10:53:14.149Z,13468
2023-04-10T10:54:15.043Z,13644
2023-04-10T10:55:15.383Z,13360
2023-04-10T10:56:16.345Z,13668
2023-04-10T10:57:17.006Z,13472
2023-04-10T10:58:17.783Z,13168
2023-04-10T10:59:18.096Z,12924
2023-04-10T11:00:18.826Z,12432
2023-04-10T11:01:21.870Z,12784
2023-04-10T11:02:20.873Z,13124
2023-04-10T11:03:21.356Z,13308
2023-04-10T11:04:21.149Z,13440
2023-04-10T11:05:21.895Z,13644
2023-04-10T11:06:22.668Z,13536
2023-04-10T11:07:23.018Z,13668
2023-04-10T11:08:23.604Z,13600
2023-04-10T11:09:24.291Z,13548
2023-04-10T11:10:25.259Z,13476
2023-04-10T11:11:25.227Z,13272
2023-04-10T11:12:26.196Z,13104
2023-04-10T11:13:27.034Z,13272
2023-04-10T11:14:27.434Z,13168
2023-04-10T11:15:27.992Z,13344
2023-04-10T11:16:28.412Z,13256
2023-04-10T11:17:29.145Z,13100
2023-04-10T11:18:29.299Z,12888
2023-04-10T11:19:34.216Z,12768
2023-04-10T11:20:30.694Z,12576
2023-04-10T11:21:31.199Z,12756
2023-04-10T11:22:31.742Z,12484
2023-04-10T11:23:32.736Z,12496
2023-04-10T11:24:32.843Z,12332
2023-04-10T11:25:33.613Z,12292
2023-04-10T11:26:34.549Z,12156
2023-04-10T11:27:37.301Z,12116
2023-04-10T11:28:35.894Z,11952
2023-04-10T11:29:36.589Z,11916
2023-04-10T11:30:36.929Z,11752
2023-04-10T11:31:37.982Z,11520
2023-04-10T11:32:38.840Z,11416
2023-04-10T11:33:39.214Z,11436
2023-04-10T11:34:39.979Z,11160
2023-04-10T11:35:41.082Z,11012
2023-04-10T11:36:41.912Z,11064
2023-04-10T11:37:42.537Z,10984
2023-04-10T11:38:43.113Z,10968
2023-04-10T11:39:44.082Z,10776
2023-04-10T11:40:44.975Z,10700
2023-04-10T11:41:44.705Z,10652
2023-04-10T11:42:45.026Z,10516
2023-04-10T11:43:45.587Z,10556
2023-04-10T11:44:47.172Z,10548
2023-04-10T11:45:47.085Z,10368
2023-04-10T11:46:47.891Z,10412
2023-04-10T11:47:48.367Z,10232
2023-04-10T11:48:49.202Z,10228
2023-04-10T11:49:50.102Z,10244
2023-04-10T11:50:51.121Z,10128
2023-04-10T11:51:50.865Z,9868
2023-04-10T11:52:51.373Z,9940
2023-04-10T11:53:52.195Z,9948
2023-04-10T11:54:52.549Z,9848
2023-04-10T11:55:53.550Z,9640
2023-04-10T11:56:54.274Z,9708
2023-04-10T11:57:54.717Z,9636
2023-04-10T11:58:55.651Z,9940
2023-04-10T11:59:56.114Z,9452
2023-04-10T12:00:57.050Z,8500
2023-04-10T12:01:57.446Z,8536
2023-04-10T12:02:59.606Z,9276
2023-04-10T12:03:59.886Z,9684
2023-04-10T12:05:00.570Z,9684
2023-04-10T12:06:01.019Z,9660
2023-04-10T12:07:01.250Z,9548
2023-04-10T12:08:01.681Z,9556
2023-04-10T12:09:03.341Z,9296
2023-04-10T12:10:02.991Z,9212
2023-04-10T12:11:04.229Z,9312
2023-04-10T12:12:04.862Z,9356
2023-04-10T12:13:06.251Z,9360
2023-04-10T12:14:06.831Z,9196
2023-04-10T12:15:07.420Z,9260
2023-04-10T12:16:08.099Z,9208
2023-04-10T12:17:08.955Z,9232
2023-04-10T12:18:09.805Z,9092
2023-04-10T12:19:10.138Z,9004
2023-04-10T12:20:10.791Z,8940
2023-04-10T12:21:14.448Z,9012
2023-04-10T12:22:11.778Z,8752
2023-04-10T12:23:12.489Z,8768
2023-04-10T12:24:13.097Z,8896
2023-04-10T12:25:13.818Z,8772
2023-04-10T12:26:13.848Z,8832
2023-04-10T12:27:14.375Z,8824
2023-04-10T12:28:15.226Z,8472
2023-04-10T12:29:15.950Z,8656
2023-04-10T12:30:16.897Z,8612
2023-04-10T12:31:17.919Z,8500
2023-04-10T12:32:18.867Z,8536
2023-04-10T12:33:19.628Z,8388
2023-04-10T12:34:22.342Z,8276
2023-04-10T12:35:20.932Z,8304
2023-04-10T12:36:21.501Z,8408
2023-04-10T12:37:22.226Z,8200
2023-04-10T12:38:22.850Z,8220
2023-04-10T12:39:23.392Z,8028
2023-04-10T12:40:23.738Z,7696
2023-04-10T12:41:24.512Z,7988
2023-04-10T12:42:24.442Z,7876
2023-04-10T12:43:25.379Z,7796
2023-04-10T12:44:25.094Z,8228
2023-04-10T12:45:25.836Z,7684
2023-04-10T12:46:26.661Z,8036
2023-04-10T12:47:26.713Z,7900
2023-04-10T12:48:27.321Z,7852
2023-04-10T12:49:28.032Z,8184
2023-04-10T12:50:28.609Z,7632
2023-04-10T12:51:28.934Z,7828
2023-04-10T12:52:29.633Z,7512
2023-04-10T12:53:30.422Z,8736
2023-04-10T12:54:31.412Z,8896
2023-04-10T12:55:32.054Z,9436
2023-04-10T12:56:32.459Z,9552
2023-04-10T12:57:33.364Z,9936
2023-04-10T12:58:34.110Z,10404
2023-04-10T12:59:35.738Z,9988
2023-04-10T13:00:35.436Z,10168
2023-04-10T13:01:36.055Z,10244
2023-04-10T13:02:37.563Z,9440
2023-04-10T13:03:38.590Z,9508
2023-04-10T13:04:39.545Z,8996
2023-04-10T13:05:39.596Z,7724
2023-04-10T13:06:42.297Z,6828
2023-04-10T13:07:41.079Z,8324
2023-04-10T13:08:40.748Z,8848
2023-04-10T13:09:41.292Z,8416
2023-04-10T13:10:41.993Z,8356
2023-04-10T13:11:43.659Z,8712
2023-04-10T13:12:43.410Z,7924
2023-04-10T13:13:44.325Z,8520
2023-04-10T13:14:44.845Z,9072
2023-04-10T13:15:45.390Z,9060
2023-04-10T13:16:46.760Z,8772
2023-04-10T13:17:46.656Z,8724
2023-04-10T13:18:46.791Z,8448
2023-04-10T13:19:47.092Z,8456
2023-04-10T13:20:47.199Z,8372
2023-04-10T13:21:47.783Z,8500
2023-04-10T13:22:48.668Z,7512
2023-04-10T13:23:49.138Z,8988
2023-04-10T13:24:50.125Z,8944
2023-04-10T13:25:51.204Z,8544
2023-04-10T13:26:52.170Z,8468
2023-04-10T13:27:52.905Z,8260
2023-04-10T13:28:53.619Z,7776
2023-04-10T13:29:54.795Z,7476
2023-04-10T13:30:55.501Z,7452
2023-04-10T13:31:56.472Z,7268
2023-04-10T13:32:56.342Z,7196
2023-04-10T13:33:57.194Z,7280
2023-04-10T13:34:57.696Z,7040
2023-04-10T13:35:58.618Z,6668
2023-04-10T13:36:58.989Z,6368
2023-04-10T13:37:59.052Z,6628
2023-04-10T13:39:00.341Z,6352
2023-04-10T13:40:00.283Z,5996
2023-04-10T13:41:01.003Z,5420
2023-04-10T13:42:02.315Z,5156
2023-04-10T13:43:01.896Z,4908
2023-04-10T13:44:02.985Z,4560
2023-04-10T13:45:03.202Z,4244
2023-04-10T13:46:03.196Z,3752
2023-04-10T13:47:04.534Z,4172
2023-04-10T13:48:04.469Z,4156
2023-04-10T13:49:05.645Z,4532
2023-04-10T13:50:05.159Z,4680
2023-04-10T13:51:05.507Z,4888
2023-04-10T13:52:06.426Z,5096
2023-04-10T13:53:07.206Z,5212
2023-04-10T13:54:07.537Z,5236
2023-04-10T13:55:08.504Z,5380
2023-04-10T13:56:09.258Z,5704
2023-04-10T13:57:10.017Z,5816